createdAt,value
2023-02-26T00:02:24.376Z,96551.91
2023-02-26T00:05:25.870Z,96553.44
2023-02-26T00:08:27.399Z,96551.69
2023-02-26T00:11:29.466Z,96553.75
2023-02-26T00:14:31.339Z,96572.84
2023-02-26T00:17:44.027Z,96565.84
2023-02-26T00:20:45.693Z,96569.53
2023-02-26T00:23:47.418Z,96570.66
2023-02-26T00:26:48.956Z,96563.41
2023-02-26T00:29:50.812Z,96564.78
2023-02-26T00:32:52.624Z,96577.00
2023-02-26T00:36:00.452Z,96582.31
2023-02-26T00:39:09.962Z,96569.69
2023-02-26T00:42:12.558Z,96573.66
2023-02-26T00:45:14.662Z,96572.56
2023-02-26T00:48:34.657Z,96565.13
2023-02-26T00:51:54.482Z,96567.72
2023-02-26T00:54:56.002Z,96571.66
2023-02-26T00:57:57.618Z,96575.34
2023-02-26T01:01:00.048Z,96576.44
2023-02-26T01:04:01.875Z,96575.44
2023-02-26T01:07:03.660Z,96579.97
2023-02-26T01:10:05.874Z,96572.81
2023-02-26T01:13:07.831Z,96570.75
2023-02-26T01:16:14.148Z,96573.84
2023-02-26T01:19:38.279Z,96579.50
2023-02-26T01:22:51.155Z,96580.50
2023-02-26T01:26:14.007Z,96570.75
2023-02-26T01:29:15.776Z,96581.81
2023-02-26T01:32:46.358Z,96577.19
2023-02-26T01:35:53.016Z,96576.88
2023-02-26T01:39:10.430Z,96580.56
2023-02-26T01:42:23.452Z,96567.38
2023-02-26T01:45:35.167Z,96566.00
2023-02-26T01:48:47.964Z,96570.03
2023-02-26T01:51:55.424Z,96567.16
2023-02-26T01:54:56.917Z,96564.66
2023-02-26T01:58:00.504Z,96559.38
2023-02-26T02:01:02.399Z,96572.69
2023-02-26T02:04:07.948Z,96573.00
2023-02-26T02:07:09.873Z,96567.50
2023-02-26T02:10:12.723Z,96568.47
2023-02-26T02:13:20.251Z,96566.63
2023-02-26T02:16:31.802Z,96562.38
2023-02-26T02:20:16.276Z,96565.66
2023-02-26T02:23:37.156Z,96563.72
2023-02-26T02:27:08.050Z,96562.13
2023-02-26T02:30:28.809Z,96566.44
2023-02-26T02:33:37.404Z,96578.34
2023-02-26T02:37:02.670Z,96577.22
2023-02-26T02:40:22.118Z,96580.66
2023-02-26T02:43:27.987Z,96574.41
2023-02-26T02:46:33.439Z,96578.25
2023-02-26T02:49:58.399Z,96577.06
2023-02-26T02:53:23.115Z,96581.44
2023-02-26T02:56:36.825Z,96576.06
2023-02-26T02:59:48.136Z,96585.88
2023-02-26T03:03:02.284Z,96571.22
2023-02-26T03:06:04.116Z,96580.38
2023-02-26T03:09:08.967Z,96587.75
2023-02-26T03:12:10.543Z,96585.16
2023-02-26T03:15:14.367Z,96591.22
2023-02-26T03:18:15.923Z,96598.72
2023-02-26T03:21:22.179Z,96601.91
2023-02-26T03:24:33.577Z,96598.03
2023-02-26T03:27:44.555Z,96607.09
2023-02-26T03:31:17.004Z,96606.66
2023-02-26T03:34:46.753Z,96602.09
2023-02-26T03:37:52.214Z,96615.03
2023-02-26T03:41:00.643Z,96612.19
2023-02-26T03:44:16.237Z,96625.88
2023-02-26T03:47:18.098Z,96622.69
2023-02-26T03:50:32.136Z,96621.47
2023-02-26T03:54:03.510Z,96619.84
2023-02-26T03:57:09.048Z,96621.63
2023-02-26T04:00:32.788Z,96633.53
2023-02-26T04:04:01.060Z,96629.50
2023-02-26T04:07:03.729Z,96633.81
2023-02-26T04:10:07.705Z,96636.22
2023-02-26T04:13:09.452Z,96626.59
2023-02-26T04:16:12.953Z,96645.75
2023-02-26T04:19:14.584Z,96632.19
2023-02-26T04:22:17.433Z,96640.09
2023-02-26T04:25:19.051Z,96646.94
2023-02-26T04:28:20.922Z,96648.34
2023-02-26T04:31:23.041Z,96643.16
2023-02-26T04:34:24.725Z,96646.31
2023-02-26T04:37:27.212Z,96644.31
2023-02-26T04:40:28.846Z,96645.66
2023-02-26T04:43:30.430Z,96645.81
2023-02-26T04:46:47.092Z,96654.34
2023-02-26T04:49:48.587Z,96649.88
2023-02-26T04:52:50.156Z,96641.19
2023-02-26T04:55:52.498Z,96642.63
2023-02-26T04:58:54.225Z,96641.47
2023-02-26T05:02:02.554Z,96637.25
2023-02-26T05:05:04.615Z,96642.94
2023-02-26T05:08:06.077Z,96640.47
2023-02-26T05:11:09.420Z,96644.13
2023-02-26T05:14:10.956Z,96646.59
2023-02-26T05:17:13.272Z,96642.72
2023-02-26T05:20:15.473Z,96654.53
2023-02-26T05:23:17.043Z,96651.72
2023-02-26T05:26:18.577Z,96653.38
2023-02-26T05:29:20.156Z,96662.31
2023-02-26T05:32:21.847Z,96660.91
2023-02-26T05:35:23.366Z,96661.13
2023-02-26T05:38:24.878Z,96655.03
2023-02-26T05:41:26.405Z,96663.28
2023-02-26T05:44:28.045Z,96665.41
2023-02-26T05:47:29.651Z,96677.69
2023-02-26T05:50:31.191Z,96672.34
2023-02-26T05:53:32.722Z,96688.75
2023-02-26T05:56:34.293Z,96676.25
2023-02-26T05:59:35.906Z,96696.16
2023-02-26T06:02:37.482Z,96682.84
2023-02-26T06:05:39.074Z,96701.84
2023-02-26T06:08:40.534Z,96705.63
2023-02-26T06:11:42.066Z,96702.88
2023-02-26T06:14:43.517Z,96704.75
2023-02-26T06:17:45.140Z,96715.41
2023-02-26T06:20:46.651Z,96716.22
2023-02-26T06:23:48.197Z,96720.56
2023-02-26T06:26:49.692Z,96725.03
2023-02-26T06:29:51.215Z,96726.22
2023-02-26T06:32:52.799Z,96728.31
2023-02-26T06:35:54.351Z,96730.56
2023-02-26T06:38:55.841Z,96744.38
2023-02-26T06:41:57.316Z,96739.09
2023-02-26T06:44:58.847Z,96743.94
2023-02-26T06:48:00.637Z,96735.22
2023-02-26T06:51:02.165Z,96742.66
2023-02-26T06:54:03.751Z,96739.22
2023-02-26T06:57:05.202Z,96757.41
2023-02-26T07:00:09.394Z,96755.88
2023-02-26T07:03:14.951Z,96755.97
2023-02-26T07:06:27.000Z,96764.72
2023-02-26T07:09:29.359Z,96773.78
2023-02-26T07:12:30.925Z,96770.81
2023-02-26T07:15:32.517Z,96773.44
2023-02-26T07:18:35.483Z,96776.09
2023-02-26T07:21:36.916Z,96777.63
2023-02-26T07:24:38.363Z,96776.69
2023-02-26T07:27:41.674Z,96784.66
2023-02-26T07:30:44.413Z,96784.78
2023-02-26T07:33:45.911Z,96788.44
2023-02-26T07:36:47.361Z,96790.97
2023-02-26T07:39:48.904Z,96791.63
2023-02-26T07:42:50.786Z,96795.91
2023-02-26T07:45:54.264Z,96785.94
2023-02-26T07:48:55.838Z,96780.72
2023-02-26T07:51:57.360Z,96785.50
2023-02-26T07:54:58.797Z,96787.16
2023-02-26T07:58:00.342Z,96784.19
2023-02-26T08:01:01.880Z,96788.50
2023-02-26T08:04:07.424Z,96799.81
2023-02-26T08:07:09.072Z,96798.91
2023-02-26T08:10:11.846Z,96807.47
2023-02-26T08:13:13.342Z,96801.03
2023-02-26T08:16:14.911Z,96797.47
2023-02-26T08:19:16.440Z,96791.22
2023-02-26T08:22:17.933Z,96787.28
2023-02-26T08:25:19.763Z,96791.72
2023-02-26T08:28:21.218Z,96790.28
2023-02-26T08:31:22.849Z,96786.06
2023-02-26T08:34:24.491Z,96780.16
2023-02-26T08:37:26.052Z,96781.44
2023-02-26T08:40:27.609Z,96788.41
2023-02-26T08:43:29.876Z,96792.53
2023-02-26T08:46:31.447Z,96779.59
2023-02-26T08:49:33.085Z,96788.16
2023-02-26T08:52:34.554Z,96800.31
2023-02-26T08:55:36.279Z,96791.03
2023-02-26T08:58:37.766Z,96805.78
2023-02-26T09:01:39.273Z,96817.78
2023-02-26T09:04:40.902Z,96802.13
2023-02-26T09:07:43.427Z,96814.78
2023-02-26T09:10:44.903Z,96819.75
2023-02-26T09:13:46.425Z,96817.09
2023-02-26T09:16:50.633Z,96819.19
2023-02-26T09:19:52.631Z,96822.75
2023-02-26T09:22:54.073Z,96805.47
2023-02-26T09:25:57.146Z,96813.72
2023-02-26T09:28:58.809Z,96811.56
2023-02-26T09:32:00.540Z,96806.47
2023-02-26T09:35:02.801Z,96818.41
2023-02-26T09:38:04.295Z,96804.97
2023-02-26T09:41:17.106Z,96806.25
2023-02-26T09:44:23.255Z,96815.22
2023-02-26T09:47:30.173Z,96809.16
2023-02-26T09:50:48.585Z,96832.81
2023-02-26T09:53:52.203Z,96827.81
2023-02-26T09:56:56.690Z,96832.63
2023-02-26T10:00:00.389Z,96830.47
2023-02-26T10:03:01.907Z,96848.06
2023-02-26T10:06:21.365Z,96841.50
2023-02-26T10:09:37.918Z,96847.13
2023-02-26T10:12:43.117Z,96847.81
2023-02-26T10:15:45.601Z,96844.53
2023-02-26T10:18:54.346Z,96845.16
2023-02-26T10:22:04.187Z,96837.09
2023-02-26T10:25:22.421Z,96828.44
2023-02-26T10:28:53.303Z,96837.09
2023-02-26T10:32:16.303Z,96850.41
2023-02-26T10:35:19.959Z,96859.34
2023-02-26T10:38:26.784Z,96858.22
2023-02-26T10:41:31.580Z,96877.03
2023-02-26T10:44:44.780Z,96881.44
2023-02-26T10:47:53.350Z,96865.63
2023-02-26T10:51:00.574Z,96869.22
2023-02-26T10:54:13.187Z,96867.69
2023-02-26T10:57:24.420Z,96863.72
2023-02-26T11:00:26.022Z,96849.84
2023-02-26T11:03:49.214Z,96855.16
2023-02-26T11:07:00.403Z,96858.63
2023-02-26T11:10:03.135Z,96862.78
2023-02-26T11:13:04.688Z,96848.09
2023-02-26T11:16:15.008Z,96856.69
2023-02-26T11:19:17.214Z,96862.63
2023-02-26T11:22:18.814Z,96862.00
2023-02-26T11:25:24.630Z,96861.97
2023-02-26T11:28:32.070Z,96864.28
2023-02-26T11:31:34.154Z,96867.16
2023-02-26T11:34:36.737Z,96874.00
2023-02-26T11:37:40.303Z,96867.97
2023-02-26T11:40:43.142Z,96867.03
2023-02-26T11:43:48.939Z,96865.78
2023-02-26T11:46:57.355Z,96860.44
2023-02-26T11:50:10.179Z,96866.63
2023-02-26T11:53:25.371Z,96856.66
2023-02-26T11:56:41.679Z,96845.13
2023-02-26T11:59:49.116Z,96857.41
2023-02-26T12:02:50.945Z,96856.47
2023-02-26T12:05:55.365Z,96862.22
2023-02-26T12:08:57.157Z,96864.72
2023-02-26T12:12:04.285Z,96860.03
2023-02-26T12:15:31.953Z,96859.22
2023-02-26T12:18:53.372Z,96861.00
2023-02-26T12:22:32.220Z,96854.81
2023-02-26T12:25:54.101Z,96845.34
2023-02-26T12:29:05.700Z,96853.38
2023-02-26T12:32:29.085Z,96848.25
2023-02-26T12:35:43.688Z,96853.28
2023-02-26T12:39:28.398Z,96853.06
2023-02-26T12:42:48.712Z,96850.31
2023-02-26T12:46:02.448Z,96868.53
2023-02-26T12:49:40.941Z,96860.31
2023-02-26T12:52:42.461Z,96856.75
2023-02-26T12:56:18.068Z,96864.84
2023-02-26T12:59:34.915Z,96857.81
2023-02-26T13:03:04.060Z,96859.50
2023-02-26T13:06:22.825Z,96851.69
2023-02-26T13:09:33.628Z,96854.41
2023-02-26T13:12:56.541Z,96860.72
2023-02-26T13:16:22.917Z,96845.38
2023-02-26T13:19:43.227Z,96853.19
2023-02-26T13:22:50.313Z,96847.66
2023-02-26T13:25:59.312Z,96857.97
2023-02-26T13:29:14.965Z,96852.50
2023-02-26T13:32:21.408Z,96844.53
2023-02-26T13:35:38.065Z,96855.47
2023-02-26T13:38:48.784Z,96852.09
2023-02-26T13:42:02.377Z,96846.84
2023-02-26T13:45:41.977Z,96855.59
2023-02-26T13:49:00.562Z,96867.31
2023-02-26T13:52:02.083Z,96866.53
2023-02-26T13:55:06.077Z,96865.94
2023-02-26T13:58:23.027Z,96860.59
2023-02-26T14:02:03.129Z,96855.25
2023-02-26T14:05:27.449Z,96863.25
2023-02-26T14:08:41.063Z,96869.66
2023-02-26T14:11:46.545Z,96861.81
2023-02-26T14:15:27.864Z,96878.41
2023-02-26T14:18:39.907Z,96879.13
2023-02-26T14:22:09.416Z,96878.41
2023-02-26T14:25:16.957Z,96888.63
2023-02-26T14:28:29.653Z,96886.41
2023-02-26T14:31:50.817Z,96887.38
2023-02-26T14:34:55.313Z,96885.59
2023-02-26T14:38:03.564Z,96885.84
2023-02-26T14:41:09.228Z,96886.00
2023-02-26T14:44:26.418Z,96876.78
2023-02-26T14:47:28.030Z,96874.75
2023-02-26T14:50:49.655Z,96891.50
2023-02-26T14:54:12.248Z,96890.38
2023-02-26T14:57:32.590Z,96889.19
2023-02-26T15:00:39.699Z,96897.44
2023-02-26T15:03:49.987Z,96893.56
2023-02-26T15:07:15.045Z,96904.56
2023-02-26T15:10:31.477Z,96916.00
2023-02-26T15:13:40.518Z,96930.47
2023-02-26T15:16:51.000Z,96921.59
2023-02-26T15:20:21.562Z,96916.50
2023-02-26T15:23:40.794Z,96917.84
2023-02-26T15:26:54.115Z,96914.22
2023-02-26T15:29:56.310Z,96921.72
2023-02-26T15:33:04.627Z,96925.28
2023-02-26T15:36:10.064Z,96956.47
2023-02-26T15:39:15.865Z,96950.22
2023-02-26T15:42:19.662Z,96947.63
2023-02-26T15:45:35.895Z,96933.13
2023-02-26T15:48:42.184Z,96944.72
2023-02-26T15:51:45.416Z,96943.47
2023-02-26T15:54:50.879Z,96951.53
2023-02-26T15:57:54.752Z,96959.44
2023-02-26T16:01:00.096Z,96967.97
2023-02-26T16:04:06.056Z,96963.38
2023-02-26T16:07:11.391Z,96970.69
2023-02-26T16:10:40.940Z,96975.19
2023-02-26T16:13:44.659Z,96979.66
2023-02-26T16:16:49.570Z,96984.84
2023-02-26T16:19:52.952Z,96977.03
2023-02-26T16:22:59.449Z,96971.69
2023-02-26T16:26:04.119Z,96967.81
2023-02-26T16:29:28.059Z,96966.66
2023-02-26T16:32:34.000Z,96963.84
2023-02-26T16:35:42.953Z,96968.97
2023-02-26T16:38:49.670Z,96978.34
2023-02-26T16:42:15.627Z,96979.16
2023-02-26T16:45:23.046Z,96983.81
2023-02-26T16:48:26.795Z,96994.13
2023-02-26T16:51:30.939Z,96997.91
2023-02-26T16:54:36.851Z,97018.88
2023-02-26T16:57:44.656Z,97037.59
2023-02-26T17:00:50.590Z,97032.66
2023-02-26T17:04:01.020Z,97036.00
2023-02-26T17:07:14.819Z,97036.34
2023-02-26T17:10:30.186Z,97030.06
2023-02-26T17:13:34.136Z,97038.03
2023-02-26T17:16:35.864Z,97041.31
2023-02-26T17:19:38.556Z,97034.56
2023-02-26T17:22:43.823Z,97042.50
2023-02-26T17:25:47.742Z,97038.34
2023-02-26T17:28:50.179Z,97040.13
2023-02-26T17:31:52.870Z,97053.00
2023-02-26T17:34:58.238Z,97059.16
2023-02-26T17:38:01.147Z,97055.50
2023-02-26T17:41:02.957Z,97048.16
2023-02-26T17:44:04.589Z,97057.50
2023-02-26T17:47:06.821Z,97063.09
2023-02-26T17:50:20.366Z,97063.09
2023-02-26T17:53:24.289Z,97066.50
2023-02-26T17:56:28.788Z,97068.16
2023-02-26T17:59:30.530Z,97071.47
2023-02-26T18:02:32.406Z,97070.41
2023-02-26T18:05:38.914Z,97077.84
2023-02-26T18:08:40.885Z,97069.81
2023-02-26T18:11:43.044Z,97048.88
2023-02-26T18:14:44.817Z,97059.28
2023-02-26T18:17:46.469Z,97066.63
2023-02-26T18:20:48.493Z,97083.75
2023-02-26T18:23:50.051Z,97071.81
2023-02-26T18:26:52.877Z,97084.50
2023-02-26T18:29:54.676Z,97083.19
2023-02-26T18:32:56.707Z,97083.19
2023-02-26T18:35:58.664Z,97090.03
2023-02-26T18:39:02.301Z,97090.88
2023-02-26T18:42:04.970Z,97089.44
2023-02-26T18:45:07.114Z,97102.44
2023-02-26T18:48:11.783Z,97099.97
2023-02-26T18:51:13.575Z,97111.44
2023-02-26T18:54:15.083Z,97123.41
2023-02-26T18:57:17.262Z,97123.53
2023-02-26T19:00:20.268Z,97121.72
2023-02-26T19:03:21.786Z,97108.13
2023-02-26T19:06:23.432Z,97126.47
2023-02-26T19:09:24.944Z,97132.13
2023-02-26T19:12:26.639Z,97132.84
2023-02-26T19:15:28.500Z,97134.63
2023-02-26T19:18:30.234Z,97140.28
2023-02-26T19:21:34.164Z,97140.66
2023-02-26T19:24:35.815Z,97136.28
2023-02-26T19:27:37.869Z,97148.47
2023-02-26T19:30:39.775Z,97141.94
2023-02-26T19:33:41.224Z,97148.56
2023-02-26T19:36:47.939Z,97134.84
2023-02-26T19:39:49.637Z,97139.13
2023-02-26T19:42:51.321Z,97150.34
2023-02-26T19:45:55.860Z,97152.97
2023-02-26T19:48:57.309Z,97155.66
2023-02-26T19:51:58.964Z,97133.44
2023-02-26T19:55:00.723Z,97150.69
2023-02-26T19:58:02.213Z,97148.91
2023-02-26T20:01:04.630Z,97148.44
2023-02-26T20:04:06.177Z,97145.47
2023-02-26T20:07:07.766Z,97159.53
2023-02-26T20:10:10.098Z,97170.41
2023-02-26T20:13:13.176Z,97165.56
2023-02-26T20:16:15.645Z,97166.16
2023-02-26T20:19:17.360Z,97160.38
2023-02-26T20:22:21.125Z,97171.25
2023-02-26T20:25:23.147Z,97166.88
2023-02-26T20:28:25.416Z,97170.88
2023-02-26T20:31:27.247Z,97163.56
2023-02-26T20:34:29.054Z,97149.38
2023-02-26T20:37:30.792Z,97161.56
2023-02-26T20:40:32.257Z,97157.88
2023-02-26T20:43:33.729Z,97163.56
2023-02-26T20:46:38.718Z,97156.78
2023-02-26T20:49:40.368Z,97165.53
2023-02-26T20:52:41.859Z,97175.81
2023-02-26T20:55:43.882Z,97177.56
2023-02-26T20:58:45.374Z,97181.69
2023-02-26T21:01:47.810Z,97172.22
2023-02-26T21:04:49.295Z,97167.97
2023-02-26T21:07:51.027Z,97167.75
2023-02-26T21:10:52.652Z,97176.50
2023-02-26T21:13:54.200Z,97174.38
2023-02-26T21:16:58.830Z,97164.47
2023-02-26T21:20:00.302Z,97179.94
2023-02-26T21:23:01.826Z,97169.63
2023-02-26T21:26:03.771Z,97172.34
2023-02-26T21:29:05.629Z,97172.34
2023-02-26T21:32:07.254Z,97177.69
2023-02-26T21:35:12.207Z,97172.16
2023-02-26T21:38:13.861Z,97172.47
2023-02-26T21:41:15.585Z,97164.53
2023-02-26T21:44:17.155Z,97169.53
2023-02-26T21:47:18.648Z,97162.22
2023-02-26T21:50:20.120Z,97169.88
2023-02-26T21:53:21.601Z,97146.94
2023-02-26T21:56:23.541Z,97154.97
2023-02-26T21:59:25.603Z,97154.50
2023-02-26T22:02:27.108Z,97152.50
2023-02-26T22:05:28.615Z,97152.38
2023-02-26T22:08:30.424Z,97161.44
2023-02-26T22:11:31.894Z,97147.13
2023-02-26T22:14:33.358Z,97148.56
2023-02-26T22:17:34.863Z,97160.72
2023-02-26T22:20:36.358Z,97155.44
2023-02-26T22:23:37.838Z,97166.09
2023-02-26T22:26:39.413Z,97162.75
2023-02-26T22:29:40.898Z,97162.91
2023-02-26T22:32:43.885Z,97153.19
2023-02-26T22:35:45.427Z,97162.50
2023-02-26T22:38:47.192Z,97155.63
2023-02-26T22:41:48.686Z,97148.81
2023-02-26T22:44:50.261Z,97155.22
2023-02-26T22:47:51.855Z,97151.91
2023-02-26T22:50:53.423Z,97142.78
2023-02-26T22:53:54.995Z,97141.31
2023-02-26T22:56:56.861Z,97149.22
2023-02-26T22:59:58.375Z,97142.72
2023-02-26T23:03:00.201Z,97142.91
2023-02-26T23:06:01.860Z,97139.13
2023-02-26T23:09:05.750Z,97144.66
2023-02-26T23:12:08.416Z,97146.16
2023-02-26T23:15:11.116Z,97142.25
2023-02-26T23:18:12.866Z,97143.50
2023-02-26T23:21:14.699Z,97146.72
2023-02-26T23:24:16.271Z,97149.81
2023-02-26T23:27:18.083Z,97143.44
2023-02-26T23:30:21.788Z,97146.88
2023-02-26T23:33:23.317Z,97134.59
2023-02-26T23:36:24.774Z,97133.63
2023-02-26T23:39:28.444Z,97134.72
2023-02-26T23:42:30.071Z,97125.59
2023-02-26T23:45:31.597Z,97128.09
2023-02-26T23:48:33.177Z,97125.38
2023-02-26T23:51:34.697Z,97125.81
2023-02-26T23:54:36.250Z,97139.75
2023-02-26T23:57:38.008Z,97132.06
